createdAt,value
2019-03-11T00:00:07.077Z,0.00
2019-03-11T00:01:06.993Z,0.00
2019-03-11T00:02:06.907Z,0.00
2019-03-11T00:03:06.821Z,0.00
2019-03-11T00:04:07.518Z,0.00
2019-03-11T00:05:06.646Z,0.00
2019-03-11T00:06:06.562Z,0.00
2019-03-11T00:07:06.471Z,0.00
2019-03-11T00:08:06.388Z,0.00
2019-03-11T00:09:06.297Z,0.00
2019-03-11T00:10:06.226Z,0.00
2019-03-11T00:11:06.125Z,0.00
2019-03-11T00:12:06.039Z,0.00
2019-03-11T00:13:05.960Z,0.00
2019-03-11T00:14:05.866Z,0.00
2019-03-11T00:15:05.798Z,0.00
2019-03-11T00:16:05.694Z,0.00
2019-03-11T00:17:05.599Z,0.00
2019-03-11T00:18:05.527Z,0.00
2019-03-11T00:19:05.432Z,0.00
2019-03-11T00:20:05.346Z,0.00
2019-03-11T00:21:05.260Z,0.00
2019-03-11T00:22:05.193Z,0.00
2019-03-11T00:23:13.744Z,0.00
2019-03-11T00:25:10.382Z,0.00
2019-03-11T00:26:10.285Z,0.00
2019-03-11T00:28:15.590Z,0.00
2019-03-11T00:29:15.489Z,0.00
2019-03-11T00:31:20.804Z,0.00
2019-03-11T00:32:20.714Z,0.00
2019-03-11T00:34:14.965Z,0.00
2019-03-11T00:35:14.849Z,0.00
2019-03-11T00:36:14.764Z,0.00
2019-03-11T00:37:14.682Z,0.00
2019-03-11T00:38:14.593Z,0.00
2019-03-11T00:39:14.505Z,0.00
2019-03-11T00:40:14.412Z,0.00
2019-03-11T00:41:14.328Z,0.00
2019-03-11T00:42:14.239Z,0.00
2019-03-11T00:43:14.158Z,0.00
2019-03-11T00:44:14.073Z,0.00
2019-03-11T00:45:13.993Z,0.00
2019-03-11T00:46:13.901Z,0.00
2019-03-11T00:47:13.812Z,0.00
2019-03-11T00:48:13.723Z,0.00
2019-03-11T00:49:13.641Z,0.00
2019-03-11T00:50:13.553Z,0.00
2019-03-11T00:51:13.465Z,0.00
2019-03-11T00:52:13.375Z,0.00
2019-03-11T00:53:13.293Z,0.00
2019-03-11T00:54:13.207Z,0.00
2019-03-11T00:55:13.127Z,0.00
2019-03-11T00:56:13.034Z,0.00
2019-03-11T00:57:12.948Z,0.00
2019-03-11T00:58:12.867Z,0.00
2019-03-11T00:59:12.822Z,0.00
2019-03-11T01:00:12.687Z,0.00
2019-03-11T01:01:12.603Z,0.00
2019-03-11T01:02:12.517Z,0.00
2019-03-11T01:03:12.427Z,0.00
2019-03-11T01:04:12.338Z,0.00
2019-03-11T01:05:12.251Z,0.00
2019-03-11T01:06:12.167Z,0.00
2019-03-11T01:07:12.083Z,0.00
2019-03-11T01:08:12.001Z,0.00
2019-03-11T01:09:11.910Z,0.00
2019-03-11T01:10:11.823Z,0.00
2019-03-11T01:11:11.732Z,0.00
2019-03-11T01:12:11.646Z,0.00
2019-03-11T01:13:11.565Z,0.00
2019-03-11T01:14:11.477Z,0.00
2019-03-11T01:15:11.387Z,0.00
2019-03-11T01:16:11.310Z,0.00
2019-03-11T01:17:11.216Z,0.00
2019-03-11T01:18:11.238Z,0.00
2019-03-11T01:19:11.046Z,0.00
2019-03-11T01:20:10.961Z,0.00
2019-03-11T01:21:10.873Z,0.00
2019-03-11T01:22:10.785Z,0.00
2019-03-11T01:23:10.701Z,0.00
2019-03-11T01:24:10.614Z,0.00
2019-03-11T01:25:10.529Z,0.00
2019-03-11T01:26:10.442Z,0.00
2019-03-11T01:27:10.356Z,0.00
2019-03-11T01:28:10.270Z,0.00
2019-03-11T01:29:10.207Z,0.00
2019-03-11T01:30:10.109Z,0.00
2019-03-11T01:31:10.011Z,0.00
2019-03-11T01:32:09.921Z,0.00
2019-03-11T01:33:09.838Z,0.00
2019-03-11T01:34:09.756Z,0.00
2019-03-11T01:35:09.661Z,0.00
2019-03-11T01:36:09.576Z,0.00
2019-03-11T01:37:09.490Z,0.00
2019-03-11T01:38:09.399Z,0.00
2019-03-11T01:39:09.318Z,0.00
2019-03-11T01:40:09.228Z,0.00
2019-03-11T01:41:09.141Z,0.00
2019-03-11T01:42:09.065Z,0.00
2019-03-11T01:43:08.975Z,0.00
2019-03-11T01:44:08.881Z,0.00
2019-03-11T01:45:08.803Z,0.00
2019-03-11T01:46:08.712Z,0.00
2019-03-11T01:47:08.628Z,0.00
2019-03-11T01:48:08.538Z,0.00
2019-03-11T01:49:08.451Z,0.00
2019-03-11T01:50:08.365Z,0.00
2019-03-11T01:51:08.282Z,0.00
2019-03-11T01:52:08.196Z,0.00
2019-03-11T01:53:08.106Z,0.00
2019-03-11T01:54:08.023Z,0.00
2019-03-11T01:55:07.938Z,0.00
2019-03-11T01:56:07.848Z,0.00
2019-03-11T01:57:07.759Z,0.00
2019-03-11T01:58:07.677Z,0.00
2019-03-11T01:59:07.591Z,0.00
2019-03-11T02:00:07.504Z,0.00
2019-03-11T02:01:07.423Z,0.00
2019-03-11T02:02:07.331Z,0.00
2019-03-11T02:03:07.255Z,0.00
2019-03-11T02:04:07.197Z,0.00
2019-03-11T02:05:07.074Z,0.00
2019-03-11T02:06:06.996Z,0.00
2019-03-11T02:07:06.901Z,0.00
2019-03-11T02:08:06.810Z,0.00
2019-03-11T02:09:06.724Z,0.00
2019-03-11T02:10:06.637Z,0.00
2019-03-11T02:11:06.555Z,0.00
2019-03-11T02:12:06.465Z,0.00
2019-03-11T02:13:06.379Z,0.00
2019-03-11T02:14:06.294Z,0.00
2019-03-11T02:15:06.207Z,0.00
2019-03-11T02:16:06.122Z,0.00
2019-03-11T02:17:06.037Z,0.00
2019-03-11T02:18:05.948Z,0.00
2019-03-11T02:19:05.862Z,0.00
2019-03-11T02:20:05.777Z,0.00
2019-03-11T02:21:05.690Z,0.00
2019-03-11T02:22:05.604Z,0.00
2019-03-11T02:23:05.518Z,0.00
2019-03-11T02:24:05.433Z,0.00
2019-03-11T02:25:05.341Z,0.00
2019-03-11T02:26:05.256Z,0.00
2019-03-11T02:27:05.173Z,0.00
2019-03-11T02:28:05.083Z,0.00
2019-03-11T02:29:05.002Z,0.00
2019-03-11T02:30:04.912Z,0.00
2019-03-11T02:31:04.825Z,0.00
2019-03-11T02:32:04.755Z,0.00
2019-03-11T02:33:04.651Z,0.00
2019-03-11T02:34:04.567Z,0.00
2019-03-11T02:35:04.480Z,0.00
2019-03-11T02:36:04.396Z,0.00
2019-03-11T02:37:04.306Z,0.00
2019-03-11T02:38:04.221Z,0.00
2019-03-11T02:39:04.135Z,0.00
2019-03-11T02:40:04.047Z,0.00
2019-03-11T02:41:03.960Z,0.00
2019-03-11T02:42:03.875Z,0.00
2019-03-11T02:43:03.832Z,0.00
2019-03-11T02:44:03.723Z,0.00
2019-03-11T02:45:03.627Z,0.00
2019-03-11T02:46:03.532Z,0.00
2019-03-11T02:47:03.444Z,0.00
2019-03-11T02:48:03.357Z,0.00
2019-03-11T02:49:03.406Z,0.00
2019-03-11T02:50:03.186Z,0.00
2019-03-11T02:51:03.098Z,0.00
2019-03-11T02:52:03.036Z,0.00
2019-03-11T02:53:02.926Z,0.00
2019-03-11T02:54:02.839Z,0.00
2019-03-11T02:55:02.785Z,0.00
2019-03-11T02:56:02.663Z,0.00
2019-03-11T02:57:02.582Z,0.00
2019-03-11T02:58:02.497Z,0.00
2019-03-11T02:59:02.407Z,0.00
2019-03-11T03:00:02.318Z,0.00
2019-03-11T03:01:02.229Z,0.00
2019-03-11T03:02:02.150Z,0.00
2019-03-11T03:03:02.076Z,0.00
2019-03-11T03:04:01.988Z,0.00
2019-03-11T03:05:01.893Z,0.00
2019-03-11T03:06:01.799Z,0.00
2019-03-11T03:07:01.715Z,0.00
2019-03-11T03:08:01.628Z,0.00
2019-03-11T03:09:01.538Z,0.00
2019-03-11T03:10:01.493Z,0.00
2019-03-11T03:11:01.369Z,0.00
2019-03-11T03:12:01.284Z,0.00
2019-03-11T03:13:01.198Z,0.00
2019-03-11T03:14:01.112Z,0.00
2019-03-11T03:15:01.023Z,0.00
2019-03-11T03:16:00.946Z,0.00
2019-03-11T03:17:00.859Z,0.00
2019-03-11T03:18:00.761Z,0.00
2019-03-11T03:19:00.680Z,0.00
2019-03-11T03:20:00.584Z,0.00
2019-03-11T03:21:00.503Z,0.00
2019-03-11T03:22:00.419Z,0.00
2019-03-11T03:23:00.332Z,0.00
2019-03-11T03:24:00.245Z,0.00
2019-03-11T03:25:00.457Z,0.00
2019-03-11T03:26:00.070Z,0.00
2019-03-11T03:26:59.991Z,0.00
2019-03-11T03:27:59.971Z,0.00
2019-03-11T03:28:59.819Z,0.00
2019-03-11T03:29:59.727Z,0.00
2019-03-11T03:30:59.657Z,0.00
2019-03-11T03:31:59.552Z,0.00
2019-03-11T03:32:59.470Z,0.00
2019-03-11T03:33:59.383Z,0.00
2019-03-11T03:34:59.295Z,0.00
2019-03-11T03:35:59.231Z,0.00
2019-03-11T03:36:59.119Z,0.00
2019-03-11T03:37:59.036Z,0.00
2019-03-11T03:38:58.951Z,0.00
2019-03-11T03:39:58.863Z,0.00
2019-03-11T03:40:58.776Z,0.00
2019-03-11T03:41:58.688Z,0.00
2019-03-11T03:42:58.766Z,0.00
2019-03-11T03:43:58.517Z,0.00
2019-03-11T03:44:58.432Z,0.00
2019-03-11T03:45:58.341Z,0.00
2019-03-11T03:46:58.254Z,0.00
2019-03-11T03:47:58.170Z,0.00
2019-03-11T03:48:58.085Z,0.00
2019-03-11T03:49:58.000Z,0.00
2019-03-11T03:50:57.912Z,0.00
2019-03-11T03:51:57.825Z,0.00
2019-03-11T03:52:57.738Z,0.00
2019-03-11T03:53:57.656Z,0.00
2019-03-11T03:54:57.568Z,0.00
2019-03-11T03:55:57.479Z,0.00
2019-03-11T03:56:57.391Z,0.00
2019-03-11T03:57:57.319Z,0.00
2019-03-11T03:58:57.226Z,0.00
2019-03-11T03:59:57.136Z,0.00
2019-03-11T04:00:57.051Z,0.00
2019-03-11T04:01:56.964Z,0.00
2019-03-11T04:02:56.878Z,0.00
2019-03-11T04:03:56.790Z,0.00
2019-03-11T04:04:56.704Z,0.00
2019-03-11T04:05:56.616Z,0.00
2019-03-11T04:06:56.545Z,0.00
2019-03-11T04:07:56.445Z,0.00
2019-03-11T04:08:56.359Z,0.00
2019-03-11T04:09:56.271Z,0.00
2019-03-11T04:10:56.181Z,0.00
2019-03-11T04:11:56.097Z,0.00
2019-03-11T04:12:56.010Z,0.00
2019-03-11T04:13:55.925Z,0.00
2019-03-11T04:14:55.886Z,0.00
2019-03-11T04:15:55.755Z,0.00
2019-03-11T04:16:55.666Z,0.00
2019-03-11T04:17:55.578Z,0.00
2019-03-11T04:18:55.499Z,0.00
2019-03-11T04:19:55.408Z,0.00
2019-03-11T04:20:55.324Z,0.00
2019-03-11T04:21:55.236Z,0.00
2019-03-11T04:22:55.152Z,0.00
2019-03-11T04:23:55.060Z,0.00
2019-03-11T04:24:54.977Z,0.00
2019-03-11T04:25:54.890Z,0.00
2019-03-11T04:26:54.815Z,0.00
2019-03-11T04:27:54.723Z,0.00
2019-03-11T04:28:54.630Z,0.00
2019-03-11T04:29:54.542Z,0.00
2019-03-11T04:30:54.459Z,0.00
2019-03-11T04:31:54.371Z,0.00
2019-03-11T04:32:54.288Z,0.00
2019-03-11T04:33:54.201Z,0.00
2019-03-11T04:34:54.114Z,0.00
2019-03-11T04:35:54.028Z,0.00
2019-03-11T04:36:53.944Z,0.00
2019-03-11T04:37:53.849Z,0.00
2019-03-11T04:38:53.768Z,0.00
2019-03-11T04:39:53.682Z,0.00
2019-03-11T04:40:53.596Z,0.00
2019-03-11T04:41:53.508Z,0.00
2019-03-11T04:42:53.427Z,0.00
2019-03-11T04:43:53.339Z,0.00
2019-03-11T04:44:53.251Z,0.00
2019-03-11T04:45:53.166Z,0.00
2019-03-11T04:46:53.080Z,0.00
2019-03-11T04:47:52.990Z,0.00
2019-03-11T04:48:52.907Z,0.00
2019-03-11T04:49:52.823Z,0.00
2019-03-11T04:50:52.736Z,0.00
2019-03-11T04:51:52.648Z,0.00
2019-03-11T04:52:52.563Z,0.00
2019-03-11T04:53:52.477Z,0.00
2019-03-11T04:54:52.392Z,0.00
2019-03-11T04:55:52.301Z,0.00
2019-03-11T04:56:52.220Z,0.00
2019-03-11T04:57:52.138Z,0.00
2019-03-11T04:58:52.050Z,0.00
2019-03-11T04:59:51.959Z,0.00
2019-03-11T05:00:51.877Z,0.00
2019-03-11T05:01:51.789Z,0.00
2019-03-11T05:02:51.709Z,0.00
2019-03-11T05:03:51.619Z,0.00
2019-03-11T05:04:51.529Z,0.00
2019-03-11T05:05:51.442Z,0.00
2019-03-11T05:06:51.360Z,0.00
2019-03-11T05:07:51.273Z,0.00
2019-03-11T05:08:51.186Z,0.00
2019-03-11T05:09:51.100Z,0.00
2019-03-11T05:10:51.014Z,0.00
2019-03-11T05:11:50.927Z,0.00
2019-03-11T05:12:50.845Z,4.00
2019-03-11T05:13:50.762Z,4.00
2019-03-11T05:14:50.671Z,0.00
2019-03-11T05:15:50.585Z,4.00
2019-03-11T05:16:50.498Z,4.00
2019-03-11T05:17:50.414Z,0.00
2019-03-11T05:18:50.331Z,4.00
2019-03-11T05:19:50.252Z,4.00
2019-03-11T05:20:50.153Z,4.00
2019-03-11T05:21:50.072Z,4.00
2019-03-11T05:22:49.986Z,4.00
2019-03-11T05:23:49.896Z,8.00
2019-03-11T05:24:49.809Z,8.00
2019-03-11T05:25:49.725Z,8.00
2019-03-11T05:26:49.636Z,8.00
2019-03-11T05:27:49.547Z,8.00
2019-03-11T05:28:49.622Z,12.00
2019-03-11T05:29:49.376Z,12.00
2019-03-11T05:30:49.294Z,12.00
2019-03-11T05:31:49.209Z,12.00
2019-03-11T05:32:49.125Z,12.00
2019-03-11T05:33:49.041Z,16.00
2019-03-11T05:34:48.959Z,16.00
2019-03-11T05:35:48.863Z,12.00
2019-03-11T05:36:48.777Z,12.00
2019-03-11T05:37:48.690Z,16.00
2019-03-11T05:38:48.605Z,20.00
2019-03-11T05:39:48.516Z,16.00
2019-03-11T05:40:48.434Z,20.00
2019-03-11T05:41:48.346Z,24.00
2019-03-11T05:42:48.266Z,32.00
2019-03-11T05:43:48.174Z,44.00
2019-03-11T05:44:48.089Z,60.00
2019-03-11T05:45:48.003Z,68.00
2019-03-11T05:46:47.914Z,84.00
2019-03-11T05:47:47.827Z,100.00
2019-03-11T05:48:47.743Z,116.00
2019-03-11T05:49:47.658Z,124.00
2019-03-11T05:50:47.572Z,128.00
2019-03-11T05:51:47.482Z,132.00
2019-03-11T05:52:47.400Z,124.00
2019-03-11T05:53:47.311Z,128.00
2019-03-11T05:54:47.222Z,132.00
2019-03-11T05:55:47.209Z,156.00
2019-03-11T05:56:47.053Z,208.00
2019-03-11T05:57:46.984Z,232.00
2019-03-11T05:58:46.880Z,220.00
2019-03-11T05:59:46.798Z,192.00
2019-03-11T06:00:46.708Z,184.00
2019-03-11T06:01:46.619Z,204.00
2019-03-11T06:02:46.532Z,208.00
2019-03-11T06:03:46.447Z,220.00
2019-03-11T06:04:46.398Z,308.00
2019-03-11T06:05:46.275Z,408.00
2019-03-11T06:06:46.191Z,448.00
2019-03-11T06:07:46.101Z,460.00
2019-03-11T06:08:46.015Z,536.00
2019-03-11T06:09:45.925Z,596.00
2019-03-11T06:10:45.843Z,616.00
2019-03-11T06:11:45.755Z,588.00
2019-03-11T06:12:45.667Z,544.00
2019-03-11T06:13:45.583Z,556.00
2019-03-11T06:14:45.495Z,596.00
2019-03-11T06:15:45.405Z,684.00
2019-03-11T06:16:45.336Z,816.00
2019-03-11T06:17:45.337Z,904.00
2019-03-11T06:18:45.189Z,928.00
2019-03-11T06:19:45.065Z,976.00
2019-03-11T06:20:44.976Z,1056.00
2019-03-11T06:21:44.889Z,1068.00
2019-03-11T06:22:44.803Z,968.00
2019-03-11T06:23:44.716Z,892.00
2019-03-11T06:24:44.632Z,800.00
2019-03-11T06:25:44.539Z,588.00
2019-03-11T06:26:44.461Z,456.00
2019-03-11T06:27:44.374Z,396.00
2019-03-11T06:28:44.286Z,348.00
2019-03-11T06:29:44.193Z,344.00
2019-03-11T06:30:44.123Z,344.00
2019-03-11T06:31:44.023Z,336.00
2019-03-11T06:32:43.955Z,344.00
2019-03-11T06:33:43.855Z,444.00
2019-03-11T06:34:43.767Z,652.00
2019-03-11T06:35:43.679Z,852.00
2019-03-11T06:36:43.594Z,1056.00
2019-03-11T06:37:43.507Z,1224.00
2019-03-11T06:38:43.421Z,1288.00
2019-03-11T06:39:43.337Z,1324.00
2019-03-11T06:40:45.699Z,1344.00
2019-03-11T06:41:43.190Z,1284.00
2019-03-11T06:42:43.119Z,1136.00
2019-03-11T06:43:42.986Z,964.00
2019-03-11T06:44:42.896Z,836.00
2019-03-11T06:45:42.815Z,744.00
2019-03-11T06:46:42.726Z,836.00
2019-03-11T06:47:42.635Z,1068.00
2019-03-11T06:48:42.555Z,1296.00
2019-03-11T06:49:42.466Z,1484.00
2019-03-11T06:50:42.384Z,1540.00
2019-03-11T06:51:42.290Z,1508.00
2019-03-11T06:52:42.214Z,1508.00
2019-03-11T06:53:42.118Z,1556.00
2019-03-11T06:54:42.037Z,1588.00
2019-03-11T06:55:41.947Z,1652.00
2019-03-11T06:56:41.862Z,1596.00
2019-03-11T06:57:41.776Z,1544.00
2019-03-11T06:58:41.699Z,1492.00
2019-03-11T06:59:41.601Z,1512.00
2019-03-11T07:00:41.514Z,1556.00
2019-03-11T07:01:41.431Z,1516.00
2019-03-11T07:02:41.340Z,1512.00
2019-03-11T07:03:41.258Z,1532.00
2019-03-11T07:04:41.173Z,1528.00
2019-03-11T07:05:41.084Z,1500.00
2019-03-11T07:06:40.998Z,1456.00
2019-03-11T07:07:48.124Z,1408.00
2019-03-11T07:09:44.782Z,1492.00
2019-03-11T07:10:44.638Z,1548.00
2019-03-11T07:12:48.408Z,1392.00
2019-03-11T07:13:48.316Z,1212.00
2019-03-11T07:14:48.234Z,1028.00
2019-03-11T07:15:48.144Z,972.00
2019-03-11T07:16:48.061Z,1000.00
2019-03-11T07:17:47.970Z,1004.00
2019-03-11T07:18:47.892Z,1040.00
2019-03-11T07:19:47.803Z,1040.00
2019-03-11T07:20:47.712Z,1056.00
2019-03-11T07:21:47.625Z,1100.00
2019-03-11T07:22:47.542Z,1108.00
2019-03-11T07:23:47.455Z,1088.00
2019-03-11T07:24:47.375Z,980.00
2019-03-11T07:25:47.291Z,968.00
2019-03-11T07:26:47.212Z,1052.00
2019-03-11T07:27:47.125Z,1100.00
2019-03-11T07:28:47.019Z,1116.00
2019-03-11T07:29:46.940Z,1132.00
2019-03-11T07:30:46.848Z,1116.00
2019-03-11T07:31:46.759Z,1064.00
2019-03-11T07:32:46.681Z,960.00
2019-03-11T07:33:46.594Z,868.00
2019-03-11T07:34:46.505Z,764.00
2019-03-11T07:35:46.421Z,784.00
2019-03-11T07:36:46.333Z,768.00
2019-03-11T07:37:46.244Z,740.00
2019-03-11T07:38:46.164Z,668.00
2019-03-11T07:39:46.077Z,672.00
2019-03-11T07:40:45.993Z,624.00
2019-03-11T07:41:45.909Z,556.00
2019-03-11T07:42:45.814Z,440.00
2019-03-11T07:43:45.739Z,348.00
2019-03-11T07:44:45.645Z,272.00
2019-03-11T07:45:45.567Z,248.00
2019-03-11T07:46:45.842Z,284.00
2019-03-11T07:47:45.390Z,156.00
2019-03-11T07:48:45.295Z,176.00
2019-03-11T07:49:45.212Z,144.00
2019-03-11T07:50:45.128Z,144.00
2019-03-11T07:51:45.040Z,148.00
2019-03-11T07:52:44.959Z,180.00
2019-03-11T07:53:44.868Z,196.00
2019-03-11T07:54:44.783Z,212.00
2019-03-11T07:55:44.713Z,252.00
2019-03-11T07:56:44.608Z,236.00
2019-03-11T07:57:44.526Z,276.00
2019-03-11T07:58:44.439Z,324.00
2019-03-11T07:59:44.344Z,372.00
2019-03-11T08:00:53.386Z,408.00
2019-03-11T08:01:44.182Z,424.00
2019-03-11T08:02:44.084Z,476.00
2019-03-11T08:03:43.995Z,648.00
2019-03-11T08:04:43.910Z,1040.00
2019-03-11T08:05:43.819Z,1328.00
2019-03-11T08:06:43.732Z,1408.00
2019-03-11T08:07:43.650Z,1472.00
2019-03-11T08:08:43.555Z,1572.00
2019-03-11T08:09:43.469Z,1680.00
2019-03-11T08:10:43.382Z,1732.00
2019-03-11T08:11:43.290Z,1840.00
2019-03-11T08:12:43.203Z,2048.00
2019-03-11T08:13:43.111Z,2252.00
2019-03-11T08:14:43.025Z,2444.00
2019-03-11T08:15:42.935Z,2516.00
2019-03-11T08:16:42.846Z,2512.00
2019-03-11T08:17:42.758Z,2444.00
2019-03-11T08:18:42.674Z,2360.00
2019-03-11T08:19:42.578Z,2272.00
2019-03-11T08:20:42.493Z,2240.00
2019-03-11T08:21:42.404Z,2320.00
2019-03-11T08:22:42.316Z,2468.00
2019-03-11T08:23:42.234Z,2616.00
2019-03-11T08:24:42.142Z,2676.00
2019-03-11T08:25:42.054Z,2708.00
2019-03-11T08:26:41.969Z,2900.00
2019-03-11T08:27:41.875Z,3344.00
2019-03-11T08:28:41.783Z,4136.00
2019-03-11T08:29:41.698Z,4740.00
2019-03-11T08:30:41.611Z,4972.00
2019-03-11T08:31:41.532Z,4516.00
2019-03-11T08:32:41.442Z,4020.00
2019-03-11T08:33:41.356Z,3776.00
2019-03-11T08:34:41.259Z,3632.00
2019-03-11T08:35:41.169Z,3448.00
2019-03-11T08:36:41.078Z,3188.00
2019-03-11T08:37:40.995Z,2864.00
2019-03-11T08:38:40.908Z,2724.00
2019-03-11T08:39:40.819Z,2740.00
2019-03-11T08:40:42.810Z,2976.00
2019-03-11T08:41:40.643Z,3252.00
2019-03-11T08:42:40.557Z,3660.00
2019-03-11T08:43:40.466Z,4056.00
2019-03-11T08:44:40.384Z,4236.00
2019-03-11T08:45:40.296Z,4076.00
2019-03-11T08:46:40.208Z,3800.00
2019-03-11T08:47:40.118Z,3524.00
2019-03-11T08:48:40.028Z,3332.00
2019-03-11T08:49:39.937Z,3340.00
2019-03-11T08:50:39.852Z,3668.00
2019-03-11T08:51:39.781Z,3904.00
2019-03-11T08:52:39.678Z,3768.00
2019-03-11T08:53:39.595Z,3696.00
2019-03-11T08:54:39.517Z,3812.00
2019-03-11T08:55:40.043Z,3948.00
2019-03-11T08:56:39.329Z,4308.00
2019-03-11T08:57:41.262Z,4192.00
2019-03-11T08:58:39.162Z,3952.00
2019-03-11T08:59:39.068Z,3784.00
2019-03-11T09:00:38.976Z,3876.00
2019-03-11T09:01:38.890Z,3936.00
2019-03-11T09:02:38.805Z,3776.00
2019-03-11T09:03:38.710Z,3344.00
2019-03-11T09:04:38.640Z,3264.00
2019-03-11T09:05:38.540Z,3848.00
2019-03-11T09:06:38.457Z,4424.00
2019-03-11T09:07:38.369Z,4416.00
2019-03-11T09:08:38.278Z,5396.00
2019-03-11T09:09:38.207Z,6184.00
2019-03-11T09:10:38.104Z,6772.00
2019-03-11T09:11:38.016Z,7120.00
2019-03-11T09:12:37.927Z,8112.00
2019-03-11T09:13:37.839Z,8076.00
2019-03-11T09:14:37.757Z,7792.00
2019-03-11T09:15:37.667Z,7740.00
2019-03-11T09:16:37.582Z,8064.00
2019-03-11T09:17:37.497Z,7716.00
2019-03-11T09:18:37.411Z,6640.00
2019-03-11T09:19:37.321Z,5404.00
2019-03-11T09:20:37.235Z,4780.00
2019-03-11T09:21:37.153Z,3836.00
2019-03-11T09:22:37.055Z,3188.00
2019-03-11T09:23:36.972Z,2120.00
2019-03-11T09:24:36.887Z,1788.00
2019-03-11T09:25:36.799Z,1228.00
2019-03-11T09:26:36.716Z,936.00
2019-03-11T09:27:36.624Z,916.00
2019-03-11T09:28:36.537Z,1100.00
2019-03-11T09:29:36.457Z,1148.00
2019-03-11T09:30:36.396Z,1336.00
2019-03-11T09:31:36.280Z,1268.00
2019-03-11T09:32:36.199Z,1212.00
2019-03-11T09:33:36.112Z,1312.00
2019-03-11T09:34:36.022Z,1320.00
2019-03-11T09:35:35.929Z,1544.00
2019-03-11T09:36:35.847Z,1948.00
2019-03-11T09:37:35.752Z,2040.00
2019-03-11T09:38:35.686Z,2216.00
2019-03-11T09:39:35.588Z,2648.00
2019-03-11T09:40:35.518Z,3640.00
2019-03-11T09:41:35.407Z,3616.00
2019-03-11T09:42:35.313Z,3728.00
2019-03-11T09:43:35.231Z,3264.00
2019-03-11T09:44:35.145Z,2792.00
2019-03-11T09:45:35.061Z,2872.00
2019-03-11T09:46:34.977Z,2920.00
2019-03-11T09:47:34.881Z,2968.00
2019-03-11T09:48:34.794Z,3480.00
2019-03-11T09:49:34.705Z,4324.00
2019-03-11T09:50:34.615Z,4840.00
2019-03-11T09:51:34.527Z,5320.00
2019-03-11T09:52:34.443Z,5268.00
2019-03-11T09:53:34.359Z,5532.00
2019-03-11T09:54:34.288Z,6476.00
2019-03-11T09:55:34.232Z,6636.00
2019-03-11T09:56:42.833Z,6076.00
2019-03-11T09:57:34.007Z,5624.00
2019-03-11T09:58:33.919Z,5452.00
2019-03-11T09:59:33.829Z,5392.00
2019-03-11T10:00:33.751Z,5572.00
2019-03-11T10:01:33.655Z,5588.00
2019-03-11T10:02:33.574Z,5656.00
2019-03-11T10:03:33.484Z,5732.00
2019-03-11T10:04:33.396Z,5216.00
2019-03-11T10:05:33.306Z,4704.00
2019-03-11T10:06:33.220Z,4484.00
2019-03-11T10:07:33.136Z,4748.00
2019-03-11T10:08:33.046Z,4620.00
2019-03-11T10:09:32.956Z,4220.00
2019-03-11T10:10:32.873Z,4360.00
2019-03-11T10:11:32.783Z,4508.00
2019-03-11T10:12:32.697Z,4328.00
2019-03-11T10:13:32.619Z,3768.00
2019-03-11T10:14:32.525Z,5732.00
2019-03-11T10:15:32.499Z,6056.00
2019-03-11T10:16:32.364Z,5480.00
2019-03-11T10:17:32.264Z,3688.00
2019-03-11T10:18:32.203Z,3064.00
2019-03-11T10:19:32.109Z,2408.00
2019-03-11T10:20:32.005Z,2292.00
2019-03-11T10:21:31.912Z,1912.00
2019-03-11T10:22:31.828Z,1656.00
2019-03-11T10:23:32.503Z,1308.00
2019-03-11T10:24:31.664Z,1152.00
2019-03-11T10:25:31.569Z,1012.00
2019-03-11T10:26:31.482Z,924.00
2019-03-11T10:27:31.392Z,768.00
2019-03-11T10:28:31.307Z,768.00
2019-03-11T10:29:31.228Z,584.00
2019-03-11T10:30:31.133Z,528.00
2019-03-11T10:31:31.046Z,524.00
2019-03-11T10:32:30.960Z,656.00
2019-03-11T10:33:30.873Z,984.00
2019-03-11T10:34:30.784Z,1380.00
2019-03-11T10:35:32.651Z,1636.00
2019-03-11T10:36:30.606Z,2492.00
2019-03-11T10:37:30.519Z,3760.00
2019-03-11T10:38:30.430Z,4916.00
2019-03-11T10:39:30.347Z,6024.00
2019-03-11T10:40:30.271Z,6564.00
2019-03-11T10:41:30.172Z,6120.00
2019-03-11T10:42:30.077Z,5988.00
2019-03-11T10:43:30.006Z,6032.00
2019-03-11T10:44:29.905Z,6136.00
2019-03-11T10:45:31.663Z,5172.00
2019-03-11T10:46:29.732Z,3788.00
2019-03-11T10:47:29.657Z,3620.00
2019-03-11T10:48:37.086Z,3912.00
2019-03-11T10:49:29.485Z,3980.00
2019-03-11T10:50:29.381Z,4212.00
2019-03-11T10:51:29.295Z,4428.00
2019-03-11T10:52:29.204Z,34080.00
2019-03-11T10:53:29.120Z,56064.00
2019-03-11T10:54:29.031Z,51552.00
2019-03-11T10:55:28.941Z,48896.00
2019-03-11T10:56:28.855Z,48128.00
2019-03-11T10:57:28.770Z,42304.00
2019-03-11T10:58:29.309Z,40320.00
2019-03-11T10:59:28.595Z,43296.00
2019-03-11T11:00:28.588Z,42944.00
2019-03-11T11:01:28.433Z,42048.00
2019-03-11T11:02:28.353Z,41056.00
2019-03-11T11:03:28.271Z,45824.00
2019-03-11T11:04:28.188Z,54976.00
2019-03-11T11:05:28.118Z,57728.00
2019-03-11T11:06:28.028Z,52384.00
2019-03-11T11:07:27.949Z,58848.00
2019-03-11T11:08:27.869Z,57504.00
2019-03-11T11:09:27.794Z,56000.00
2019-03-11T11:10:27.716Z,58592.00
2019-03-11T11:11:27.637Z,61088.00
2019-03-11T11:12:27.560Z,58848.00
2019-03-11T11:13:27.489Z,57856.00
2019-03-11T11:14:27.409Z,59328.00
2019-03-11T11:15:27.355Z,61152.00
2019-03-11T11:16:27.260Z,60128.00
2019-03-11T11:17:27.190Z,62816.00
2019-03-11T11:18:27.113Z,57536.00
2019-03-11T11:19:27.036Z,59104.00
2019-03-11T11:20:26.968Z,63744.00
2019-03-11T11:21:26.890Z,54944.00
2019-03-11T11:22:26.817Z,55104.00
2019-03-11T11:23:26.748Z,38912.00
2019-03-11T11:24:26.690Z,41312.00
2019-03-11T11:25:26.597Z,38432.00
2019-03-11T11:26:26.532Z,22816.00
2019-03-11T11:27:26.449Z,18688.00
2019-03-11T11:28:26.379Z,14376.00
2019-03-11T11:29:26.303Z,11812.00
2019-03-11T11:30:26.231Z,17728.00
2019-03-11T11:31:26.153Z,13612.00
2019-03-11T11:32:26.081Z,13888.00
2019-03-11T11:33:26.005Z,13400.00
2019-03-11T11:34:25.933Z,22976.00
2019-03-11T11:35:25.848Z,31744.00
2019-03-11T11:36:25.775Z,11828.00
2019-03-11T11:37:25.697Z,10352.00
2019-03-11T11:38:25.618Z,6168.00
2019-03-11T11:39:25.538Z,3920.00
2019-03-11T11:40:25.473Z,2772.00
2019-03-11T11:41:25.382Z,2120.00
2019-03-11T11:42:25.302Z,1644.00
2019-03-11T11:43:25.220Z,1228.00
2019-03-11T11:44:25.143Z,1372.00
2019-03-11T11:45:25.058Z,1496.00
2019-03-11T11:46:24.978Z,1684.00
2019-03-11T11:47:24.899Z,2632.00
2019-03-11T11:48:24.817Z,3700.00
2019-03-11T11:49:24.729Z,4300.00
2019-03-11T11:50:24.646Z,4456.00
2019-03-11T11:51:24.566Z,4684.00
2019-03-11T11:52:24.481Z,5800.00
2019-03-11T11:53:25.369Z,8188.00
2019-03-11T11:54:24.316Z,4176.00
2019-03-11T11:55:24.230Z,2332.00
2019-03-11T11:56:24.150Z,2696.00
2019-03-11T11:57:24.063Z,3036.00
2019-03-11T11:58:23.978Z,3352.00
2019-03-11T11:59:23.893Z,3204.00
2019-03-11T12:00:23.807Z,4468.00
2019-03-11T12:01:23.721Z,6900.00
2019-03-11T12:02:23.638Z,20256.00
2019-03-11T12:03:23.564Z,41440.00
2019-03-11T12:04:23.468Z,8668.00
2019-03-11T12:05:23.387Z,5484.00
2019-03-11T12:06:23.299Z,2988.00
2019-03-11T12:07:23.335Z,1908.00
2019-03-11T12:08:23.128Z,1568.00
2019-03-11T12:09:23.073Z,1496.00
2019-03-11T12:10:22.954Z,1700.00
2019-03-11T12:11:22.874Z,1512.00
2019-03-11T12:12:22.790Z,1136.00
2019-03-11T12:13:22.706Z,876.00
2019-03-11T12:14:22.616Z,676.00
2019-03-11T12:15:22.530Z,584.00
2019-03-11T12:16:22.443Z,852.00
2019-03-11T12:17:23.487Z,1720.00
2019-03-11T12:18:22.349Z,3432.00
2019-03-11T12:19:22.188Z,5236.00
2019-03-11T12:20:22.103Z,12188.00
2019-03-11T12:21:22.017Z,14440.00
2019-03-11T12:22:21.932Z,15364.00
2019-03-11T12:23:21.843Z,17856.00
2019-03-11T12:24:21.762Z,21536.00
2019-03-11T12:25:21.672Z,17440.00
2019-03-11T12:26:21.587Z,16256.00
2019-03-11T12:27:21.501Z,16800.00
2019-03-11T12:28:21.414Z,17856.00
2019-03-11T12:29:21.335Z,20128.00
2019-03-11T12:30:21.249Z,23264.00
2019-03-11T12:31:21.684Z,24544.00
2019-03-11T12:32:21.081Z,26432.00
2019-03-11T12:33:20.997Z,23072.00
2019-03-11T12:34:20.915Z,25088.00
2019-03-11T12:35:20.825Z,27872.00
2019-03-11T12:36:20.739Z,37888.00
2019-03-11T12:37:20.658Z,33472.00
2019-03-11T12:38:20.583Z,49184.00
2019-03-11T12:39:20.494Z,65888.00
2019-03-11T12:40:20.416Z,62080.00
2019-03-11T12:41:20.337Z,68576.00
2019-03-11T12:42:20.256Z,69984.00